createdAt,value
2022-12-19T00:00:48.933Z,98961.44
2022-12-19T00:03:37.458Z,98961.63
2022-12-19T00:06:19.841Z,98968.53
2022-12-19T00:09:08.266Z,98974.09
2022-12-19T00:11:50.933Z,98971.81
2022-12-19T00:14:39.177Z,98971.66
2022-12-19T00:17:20.986Z,98971.81
2022-12-19T00:20:09.425Z,98966.66
2022-12-19T00:22:52.890Z,98971.09
2022-12-19T00:25:41.260Z,98972.84
2022-12-19T00:28:23.863Z,98986.63
2022-12-19T00:31:13.261Z,98992.56
2022-12-19T00:33:56.923Z,98983.78
2022-12-19T00:36:46.921Z,98979.59
2022-12-19T00:39:30.223Z,98980.94
2022-12-19T00:42:18.892Z,98978.66
2022-12-19T00:45:07.978Z,98985.81
2022-12-19T00:47:56.269Z,98987.03
2022-12-19T00:50:41.931Z,98989.34
2022-12-19T00:53:30.203Z,98993.38
2022-12-19T00:56:14.920Z,98991.19
2022-12-19T00:59:04.230Z,98986.63
2022-12-19T01:01:49.233Z,98994.88
2022-12-19T01:04:41.584Z,98993.22
2022-12-19T01:07:23.935Z,98997.56
2022-12-19T01:10:17.277Z,98998.28
2022-12-19T01:12:59.939Z,99008.16
2022-12-19T01:15:43.214Z,99009.25
2022-12-19T01:18:31.838Z,99011.94
2022-12-19T01:21:20.196Z,99014.25
2022-12-19T01:24:02.876Z,99020.28
2022-12-19T01:26:45.116Z,99024.34
2022-12-19T01:29:34.707Z,99026.53
2022-12-19T01:32:26.897Z,99033.25
2022-12-19T01:35:09.873Z,99030.28
2022-12-19T01:38:09.926Z,99033.78
2022-12-19T01:41:11.895Z,99034.78
2022-12-19T01:44:10.824Z,99039.72
2022-12-19T01:47:00.801Z,99038.41
2022-12-19T01:49:49.878Z,99042.72
2022-12-19T01:52:33.292Z,99043.56
2022-12-19T01:55:21.832Z,99043.31
2022-12-19T01:58:07.163Z,99048.31
2022-12-19T02:00:55.898Z,99050.84
2022-12-19T02:03:41.763Z,99054.66
2022-12-19T02:06:31.855Z,99050.34
2022-12-19T02:09:14.182Z,99055.50
2022-12-19T02:12:02.946Z,99061.53
2022-12-19T02:14:51.902Z,99067.31
2022-12-19T02:18:00.781Z,99067.91
2022-12-19T02:21:27.898Z,99070.00
2022-12-19T02:24:33.372Z,99072.38
2022-12-19T02:27:53.740Z,99085.91
2022-12-19T02:31:02.274Z,99093.44
2022-12-19T02:34:20.776Z,99092.38
2022-12-19T02:37:44.024Z,99097.53
2022-12-19T02:40:43.999Z,99106.25
2022-12-19T02:43:31.180Z,99110.94
2022-12-19T02:46:22.038Z,99105.75
2022-12-19T02:49:05.517Z,99104.41
2022-12-19T02:51:54.002Z,99117.97
2022-12-19T02:54:45.073Z,99116.72
2022-12-19T02:57:37.890Z,99121.84
2022-12-19T03:00:23.802Z,99121.97
2022-12-19T03:03:31.998Z,99134.47
2022-12-19T03:06:32.202Z,99140.66
2022-12-19T03:09:28.939Z,99129.41
2022-12-19T03:12:23.874Z,99135.28
2022-12-19T03:15:14.183Z,99142.09
2022-12-19T03:17:57.902Z,99146.38
2022-12-19T03:20:49.340Z,99149.69
2022-12-19T03:23:37.885Z,99155.28
2022-12-19T03:26:23.140Z,99156.25
2022-12-19T03:29:31.852Z,99154.41
2022-12-19T03:32:16.798Z,99155.44
2022-12-19T03:35:13.847Z,99165.28
2022-12-19T03:38:03.256Z,99172.16
2022-12-19T03:40:53.846Z,99168.28
2022-12-19T03:43:37.489Z,99177.84
2022-12-19T03:46:38.804Z,99176.25
2022-12-19T03:49:21.248Z,99184.59
2022-12-19T03:52:19.826Z,99189.75
2022-12-19T03:55:19.808Z,99193.19
2022-12-19T03:58:13.997Z,99200.91
2022-12-19T04:01:03.206Z,99203.19
2022-12-19T04:03:46.062Z,99206.91
2022-12-19T04:06:38.188Z,99209.28
2022-12-19T04:09:30.908Z,99220.44
2022-12-19T04:12:17.163Z,99225.50
2022-12-19T04:15:05.937Z,99229.69
2022-12-19T04:17:59.340Z,99236.00
2022-12-19T04:20:52.904Z,99237.84
2022-12-19T04:23:59.810Z,99235.06
2022-12-19T04:26:53.176Z,99241.66
2022-12-19T04:29:38.934Z,99244.38
2022-12-19T04:32:22.498Z,99243.72
2022-12-19T04:35:10.799Z,99248.03
2022-12-19T04:38:00.372Z,99250.34
2022-12-19T04:40:43.808Z,99248.91
2022-12-19T04:43:33.195Z,99244.06
2022-12-19T04:46:15.806Z,99250.97
2022-12-19T04:49:10.808Z,99254.03
2022-12-19T04:51:53.122Z,99253.28
2022-12-19T04:54:42.845Z,99247.03
2022-12-19T04:57:31.414Z,99246.03
2022-12-19T05:00:15.845Z,99251.41
2022-12-19T05:02:58.449Z,99249.50
2022-12-19T05:05:47.813Z,99253.72
2022-12-19T05:08:42.835Z,99247.72
2022-12-19T05:11:31.790Z,99248.97
2022-12-19T05:14:20.900Z,99249.41
2022-12-19T05:17:03.097Z,99246.94
2022-12-19T05:19:51.887Z,99249.06
2022-12-19T05:22:40.861Z,99241.97
2022-12-19T05:25:23.136Z,99244.47
2022-12-19T05:28:11.908Z,99246.53
2022-12-19T05:30:55.193Z,99238.81
2022-12-19T05:33:44.811Z,99234.31
2022-12-19T05:36:32.327Z,99231.03
2022-12-19T05:39:22.811Z,99230.19
2022-12-19T05:42:12.626Z,99227.78
2022-12-19T05:44:55.029Z,99229.53
2022-12-19T05:47:43.831Z,99224.78
2022-12-19T05:50:32.243Z,99227.00
2022-12-19T05:53:24.546Z,99226.44
2022-12-19T05:56:10.931Z,99215.53
2022-12-19T05:58:59.883Z,99207.13
2022-12-19T06:01:42.478Z,99206.34
2022-12-19T06:04:31.924Z,99211.78
2022-12-19T06:07:21.342Z,99203.63
2022-12-19T06:10:09.849Z,99202.53
2022-12-19T06:12:52.600Z,99194.88
2022-12-19T06:15:41.923Z,99187.78
2022-12-19T06:18:24.327Z,99183.09
2022-12-19T06:21:18.875Z,99180.13
2022-12-19T06:24:02.192Z,99175.22
2022-12-19T06:26:50.757Z,99172.50
2022-12-19T06:29:39.794Z,99169.78
2022-12-19T06:32:22.190Z,99170.00
2022-12-19T06:35:10.891Z,99171.38
2022-12-19T06:37:56.560Z,99166.16
2022-12-19T06:41:07.939Z,99158.47
2022-12-19T06:43:57.138Z,99158.72
2022-12-19T06:46:40.856Z,99154.06
2022-12-19T06:49:29.158Z,99150.66
2022-12-19T06:52:11.879Z,99147.78
2022-12-19T06:55:00.847Z,99146.13
2022-12-19T06:57:47.129Z,99143.06
2022-12-19T07:00:36.021Z,99133.81
2022-12-19T07:03:21.144Z,99131.88
2022-12-19T07:06:09.803Z,99130.75
2022-12-19T07:09:04.726Z,99134.03
2022-12-19T07:11:53.896Z,99118.22
2022-12-19T07:14:36.204Z,99116.00
2022-12-19T07:17:25.955Z,99111.28
2022-12-19T07:20:12.241Z,99112.13
2022-12-19T07:23:00.850Z,99105.66
2022-12-19T07:25:43.179Z,99098.88
2022-12-19T07:28:31.796Z,99092.34
2022-12-19T07:31:14.402Z,99085.75
2022-12-19T07:34:02.808Z,99084.84
2022-12-19T07:36:45.191Z,99081.25
2022-12-19T07:39:33.939Z,99076.25
2022-12-19T07:42:16.229Z,99074.06
2022-12-19T07:45:05.882Z,99075.34
2022-12-19T07:47:49.015Z,99062.78
2022-12-19T07:50:37.868Z,99071.16
2022-12-19T07:53:20.180Z,99061.31
2022-12-19T07:56:08.816Z,99065.41
2022-12-19T07:58:51.186Z,99061.28
2022-12-19T08:01:40.008Z,99060.78
2022-12-19T08:04:22.273Z,99044.94
2022-12-19T08:07:10.963Z,99035.66
2022-12-19T08:09:59.161Z,99044.41
2022-12-19T08:12:41.944Z,99036.28
2022-12-19T08:15:30.332Z,99039.00
2022-12-19T08:18:12.864Z,99041.66
2022-12-19T08:21:01.813Z,99030.19
2022-12-19T08:23:53.787Z,99029.50
2022-12-19T08:26:40.626Z,99032.22
2022-12-19T08:29:31.846Z,99023.13
2022-12-19T08:32:21.822Z,99024.22
2022-12-19T08:35:04.892Z,99016.00
2022-12-19T08:37:47.209Z,99008.91
2022-12-19T08:40:35.829Z,99005.88
2022-12-19T08:43:24.885Z,99007.00
2022-12-19T08:46:08.164Z,99008.34
2022-12-19T08:48:56.857Z,99005.13
2022-12-19T08:51:39.150Z,98996.97
2022-12-19T08:54:27.900Z,99000.56
2022-12-19T08:57:10.443Z,98994.50
2022-12-19T08:59:58.835Z,98988.16
2022-12-19T09:02:49.051Z,98986.78
2022-12-19T09:06:05.047Z,98985.94
2022-12-19T09:08:40.863Z,98986.69
2022-12-19T09:11:39.355Z,98986.53
2022-12-19T09:14:41.862Z,98974.38
2022-12-19T09:17:24.194Z,98970.84
2022-12-19T09:20:18.105Z,98977.13
2022-12-19T09:23:03.118Z,98968.44
2022-12-19T09:25:51.902Z,98970.41
2022-12-19T09:28:40.942Z,98972.25
2022-12-19T09:31:26.311Z,98964.09
2022-12-19T09:34:14.843Z,98964.16
2022-12-19T09:36:57.057Z,98955.97
2022-12-19T09:39:45.752Z,98953.50
2022-12-19T09:42:54.925Z,98949.09
2022-12-19T09:46:15.251Z,98949.16
2022-12-19T09:49:05.836Z,98942.31
2022-12-19T09:52:13.308Z,98943.50
2022-12-19T09:55:06.872Z,98943.25
2022-12-19T09:58:05.868Z,98940.28
2022-12-19T10:01:04.900Z,98935.59
2022-12-19T10:03:52.227Z,98937.00
2022-12-19T10:07:21.232Z,98935.38
2022-12-19T10:12:20.701Z,98932.97
2022-12-19T10:13:16.310Z,98932.38
2022-12-19T10:16:28.232Z,98927.78
2022-12-19T10:19:31.899Z,98925.59
2022-12-19T10:22:41.128Z,98914.16
2022-12-19T10:25:48.802Z,98915.88
2022-12-19T10:28:43.180Z,98908.47
2022-12-19T10:31:47.025Z,98907.91
2022-12-19T10:34:46.449Z,98917.50
2022-12-19T10:37:51.890Z,98906.06
2022-12-19T10:40:58.315Z,98902.81
2022-12-19T10:44:13.803Z,98905.06
2022-12-19T10:46:58.488Z,98901.25
2022-12-19T10:49:47.912Z,98902.91
2022-12-19T10:52:58.192Z,98891.75
2022-12-19T10:56:01.893Z,98898.81
2022-12-19T10:58:50.167Z,98897.47
2022-12-19T11:01:42.958Z,98894.25
2022-12-19T11:04:42.835Z,98896.97
2022-12-19T11:07:32.251Z,98888.75
2022-12-19T11:13:25.516Z,98883.88
2022-12-19T11:19:27.859Z,98884.44
2022-12-19T11:27:03.432Z,98886.06
2022-12-19T11:29:34.766Z,98881.44
2022-12-19T11:29:40.717Z,98869.75
2022-12-19T11:30:05.171Z,98876.56
2022-12-19T11:34:09.807Z,98870.00
2022-12-19T11:37:29.156Z,98864.84
2022-12-19T11:40:50.076Z,98867.53
2022-12-19T11:43:44.646Z,98868.03
2022-12-19T11:46:41.940Z,98869.63
2022-12-19T11:49:49.072Z,98868.00
2022-12-19T11:56:01.368Z,98868.50
2022-12-19T11:58:48.873Z,98863.59
2022-12-19T12:01:48.519Z,98864.63
2022-12-19T12:05:09.928Z,98869.75
2022-12-19T12:08:20.005Z,98868.94
2022-12-19T12:18:39.844Z,98866.47
2022-12-19T12:24:56.213Z,98857.38
2022-12-19T12:31:09.512Z,98866.00
2022-12-19T12:31:19.068Z,98867.03
2022-12-19T12:31:39.475Z,98871.88
2022-12-19T12:31:53.450Z,98866.66
2022-12-19T12:35:56.944Z,98872.19
2022-12-19T12:38:00.386Z,98873.69
2022-12-19T12:39:25.438Z,98883.72
2022-12-19T12:42:24.150Z,98884.97
2022-12-19T12:45:30.793Z,98881.91
2022-12-19T12:48:31.306Z,98889.41
2022-12-19T12:51:20.787Z,98882.84
2022-12-19T12:54:22.120Z,98885.38
2022-12-19T12:57:11.735Z,98885.25
2022-12-19T13:00:01.867Z,98887.97
2022-12-19T13:02:53.892Z,98890.63
2022-12-19T13:05:54.904Z,98890.78
2022-12-19T13:09:03.624Z,98894.31
2022-12-19T13:12:23.693Z,98894.00
2022-12-19T13:15:38.180Z,98902.16
2022-12-19T13:18:41.771Z,98905.38
2022-12-19T13:21:26.049Z,98906.28
2022-12-19T13:24:29.719Z,98904.13
2022-12-19T13:27:18.875Z,98907.75
2022-12-19T13:30:21.224Z,98920.03
2022-12-19T13:33:02.726Z,98919.72
2022-12-19T13:39:46.497Z,98906.16
2022-12-19T13:39:55.761Z,98914.81
2022-12-19T13:42:36.809Z,98917.53
2022-12-19T13:45:43.864Z,98917.22
2022-12-19T13:48:43.521Z,98914.41
2022-12-19T13:51:26.872Z,98918.63
2022-12-19T13:54:32.328Z,98926.78
2022-12-19T13:57:32.873Z,98924.91
2022-12-19T14:00:26.790Z,98930.59
2022-12-19T14:03:10.489Z,98940.78
2022-12-19T14:06:16.118Z,98946.53
2022-12-19T14:09:41.548Z,98946.72
2022-12-19T14:13:58.198Z,98954.47
2022-12-19T14:16:03.764Z,98958.25
2022-12-19T14:18:57.980Z,98957.63
2022-12-19T14:22:06.090Z,98957.09
2022-12-19T14:24:49.111Z,98954.34
2022-12-19T14:28:25.963Z,98958.59
2022-12-19T14:30:42.464Z,98964.50
2022-12-19T14:34:04.780Z,98968.63
2022-12-19T14:37:03.089Z,98972.63
2022-12-19T14:39:45.806Z,98969.25
2022-12-19T14:43:56.859Z,98978.53
2022-12-19T14:52:51.162Z,98981.66
2022-12-19T14:54:08.630Z,98985.53
2022-12-19T14:54:30.695Z,98995.13
2022-12-19T14:56:16.204Z,98996.69
2022-12-19T14:59:08.895Z,99004.22
2022-12-19T15:02:27.831Z,99010.16
2022-12-19T15:05:20.923Z,99013.94
2022-12-19T15:08:03.499Z,99006.19
2022-12-19T15:11:04.924Z,99011.31
2022-12-19T15:14:57.681Z,99021.31
2022-12-19T15:17:03.790Z,99016.81
2022-12-19T15:19:53.115Z,99022.13
2022-12-19T15:22:34.838Z,99019.16
2022-12-19T15:26:02.048Z,99014.00
2022-12-19T15:28:31.159Z,99021.16
2022-12-19T15:31:48.830Z,99029.38
2022-12-19T15:34:48.433Z,99022.47
2022-12-19T15:37:39.051Z,99029.75
2022-12-19T15:40:25.772Z,99024.75
2022-12-19T15:43:53.280Z,99023.78
2022-12-19T15:46:20.306Z,99021.38
2022-12-19T15:49:09.697Z,99031.00
2022-12-19T15:51:52.161Z,99031.78
2022-12-19T15:54:49.683Z,99027.25
2022-12-19T15:57:45.874Z,99029.38
2022-12-19T16:00:33.905Z,99025.94
2022-12-19T16:03:28.017Z,99034.44
2022-12-19T16:06:26.147Z,99030.06
2022-12-19T16:09:08.800Z,99035.03
2022-12-19T16:12:00.223Z,99021.84
2022-12-19T16:14:41.731Z,99018.44
2022-12-19T16:17:26.142Z,99014.56
2022-12-19T16:20:14.906Z,99024.47
2022-12-19T16:23:04.162Z,99011.53
2022-12-19T16:25:56.068Z,99011.88
2022-12-19T16:28:39.422Z,99016.69
2022-12-19T16:31:37.982Z,99006.97
2022-12-19T16:34:23.417Z,99020.81
2022-12-19T16:37:11.776Z,99018.03
2022-12-19T16:40:00.834Z,99024.28
2022-12-19T16:42:43.152Z,99018.88
2022-12-19T16:45:33.787Z,99018.75
2022-12-19T16:48:45.758Z,99022.63
2022-12-19T16:51:36.779Z,99021.78
2022-12-19T16:54:22.837Z,99021.91
2022-12-19T16:57:09.646Z,99011.09
2022-12-19T16:59:58.784Z,99013.56
2022-12-19T17:02:43.875Z,99010.00
2022-12-19T17:05:42.810Z,99002.25
2022-12-19T17:08:25.778Z,99005.69
2022-12-19T17:11:15.997Z,99003.94
2022-12-19T17:14:05.998Z,99006.50
2022-12-19T17:16:54.836Z,99005.22
2022-12-19T17:19:42.708Z,99010.63
2022-12-19T17:22:33.751Z,99009.69
2022-12-19T17:25:23.946Z,99006.97
2022-12-19T17:28:13.038Z,99003.69
2022-12-19T17:30:58.619Z,99002.19
2022-12-19T17:33:53.911Z,99002.44
2022-12-19T17:36:37.886Z,98998.63
2022-12-19T17:39:52.705Z,98998.53
2022-12-19T17:42:37.585Z,99001.50
2022-12-19T17:45:26.885Z,98988.91
2022-12-19T17:48:29.921Z,98985.97
2022-12-19T17:51:12.323Z,98990.44
2022-12-19T17:54:00.784Z,98992.69
2022-12-19T17:56:43.112Z,99004.41
2022-12-19T17:59:31.793Z,98994.06
2022-12-19T18:02:31.328Z,98993.31
2022-12-19T18:05:39.841Z,99003.00
2022-12-19T18:08:31.109Z,98997.94
2022-12-19T18:11:38.304Z,98991.84
2022-12-19T18:14:31.851Z,98996.25
2022-12-19T18:17:17.530Z,98990.41
2022-12-19T18:20:06.689Z,98995.34
2022-12-19T18:22:49.490Z,98999.59
2022-12-19T18:25:43.838Z,98990.13
2022-12-19T18:28:33.645Z,98995.16
2022-12-19T18:31:24.837Z,99003.81
2022-12-19T18:34:15.229Z,99000.34
2022-12-19T18:36:58.115Z,99005.94
2022-12-19T18:39:46.785Z,98996.50
2022-12-19T18:42:35.700Z,98991.03
2022-12-19T18:45:37.780Z,98985.16
2022-12-19T18:48:39.665Z,98985.50
2022-12-19T18:51:31.755Z,98976.47
2022-12-19T18:54:36.663Z,98979.03
2022-12-19T18:57:25.784Z,98976.22
2022-12-19T19:00:09.880Z,98979.63
2022-12-19T19:03:09.928Z,98971.44
2022-12-19T19:05:53.254Z,98970.41
2022-12-19T19:08:42.859Z,98969.44
2022-12-19T19:11:36.145Z,98974.13
2022-12-19T19:14:24.747Z,98976.47
2022-12-19T19:17:07.306Z,98963.69
2022-12-19T19:19:55.734Z,98972.50
2022-12-19T19:22:44.753Z,98967.03
2022-12-19T19:25:27.279Z,98973.88
2022-12-19T19:28:16.778Z,98961.09
2022-12-19T19:31:07.917Z,98958.28
2022-12-19T19:33:56.019Z,98948.59
2022-12-19T19:36:47.759Z,98960.44
2022-12-19T19:39:37.631Z,98957.38
2022-12-19T19:42:28.109Z,98954.66
2022-12-19T19:45:17.743Z,98952.56
2022-12-19T19:48:00.276Z,98950.19
2022-12-19T19:50:48.691Z,98954.19
2022-12-19T19:53:37.676Z,98953.88
2022-12-19T19:56:27.074Z,98939.81
2022-12-19T19:59:09.828Z,98941.69
2022-12-19T20:01:58.319Z,98940.97
2022-12-19T20:04:40.761Z,98937.09
2022-12-19T20:07:30.035Z,98936.97
2022-12-19T20:10:14.732Z,98934.56
2022-12-19T20:13:03.791Z,98929.44
2022-12-19T20:15:49.745Z,98922.63
2022-12-19T20:18:38.807Z,98929.31
2022-12-19T20:21:21.251Z,98920.59
2022-12-19T20:24:09.757Z,98926.47
2022-12-19T20:26:52.221Z,98921.31
2022-12-19T20:29:40.751Z,98920.13
2022-12-19T20:32:23.099Z,98921.41
2022-12-19T20:35:15.188Z,98929.94
2022-12-19T20:38:03.803Z,98923.81
2022-12-19T20:40:56.828Z,98919.19
2022-12-19T20:43:39.736Z,98916.63
2022-12-19T20:46:30.193Z,98919.31
2022-12-19T20:49:12.808Z,98911.06
2022-12-19T20:51:54.986Z,98914.50
2022-12-19T20:54:45.714Z,98905.91
2022-12-19T20:57:36.178Z,98912.38
2022-12-19T21:00:18.706Z,98913.25
2022-12-19T21:06:13.208Z,98922.81
2022-12-19T21:09:03.711Z,98921.34
2022-12-19T21:11:52.724Z,98917.34
2022-12-19T21:14:41.084Z,98918.53
2022-12-19T21:17:23.723Z,98917.78
2022-12-19T21:20:06.496Z,98915.69
2022-12-19T21:22:55.792Z,98916.75
2022-12-19T21:25:37.940Z,98921.97
2022-12-19T21:28:26.816Z,98909.91
2022-12-19T21:31:18.300Z,98907.19
2022-12-19T21:34:09.704Z,98914.47
2022-12-19T21:36:51.930Z,98914.94
2022-12-19T21:39:40.722Z,98919.13
2022-12-19T21:42:22.907Z,98918.34
2022-12-19T21:45:11.759Z,98913.31
2022-12-19T21:48:00.051Z,98912.59
2022-12-19T21:50:42.706Z,98912.94
2022-12-19T21:53:24.905Z,98911.50
2022-12-19T21:56:41.652Z,98915.09
2022-12-19T21:59:30.656Z,98904.16
2022-12-19T22:02:14.008Z,98909.31
2022-12-19T22:05:02.750Z,98909.69
2022-12-19T22:07:51.781Z,98907.03
2022-12-19T22:10:35.935Z,98911.03
2022-12-19T22:13:24.857Z,98909.19
2022-12-19T22:16:08.482Z,98904.38
2022-12-19T22:19:00.743Z,98912.09
2022-12-19T22:21:43.167Z,98900.88
2022-12-19T22:24:32.756Z,98905.34
2022-12-19T22:27:23.792Z,98901.16
2022-12-19T22:30:10.929Z,98905.88
2022-12-19T22:32:53.919Z,98897.72
2022-12-19T22:35:42.826Z,98901.63
2022-12-19T22:38:32.029Z,98901.53
2022-12-19T22:41:15.752Z,98904.06
2022-12-19T22:44:11.552Z,98910.44
2022-12-19T22:47:00.696Z,98897.72
2022-12-19T22:49:43.083Z,98901.38
2022-12-19T22:52:32.665Z,98896.78
2022-12-19T22:55:16.003Z,98891.72
2022-12-19T22:58:04.791Z,98904.22
2022-12-19T23:00:47.004Z,98890.16
2022-12-19T23:03:35.882Z,98896.78
2022-12-19T23:06:18.026Z,98892.72
2022-12-19T23:09:06.625Z,98893.16
2022-12-19T23:11:51.091Z,98883.97
2022-12-19T23:14:38.710Z,98893.91
2022-12-19T23:17:21.008Z,98891.38
2022-12-19T23:20:09.736Z,98892.19
2022-12-19T23:22:52.064Z,98896.53
2022-12-19T23:25:49.729Z,98890.00
2022-12-19T23:28:32.004Z,98894.72
2022-12-19T23:31:21.696Z,98896.34
2022-12-19T23:34:11.673Z,98896.69
2022-12-19T23:37:10.171Z,98895.69
2022-12-19T23:39:59.691Z,98895.63
2022-12-19T23:42:42.055Z,98893.09
2022-12-19T23:45:30.880Z,98899.50
2022-12-19T23:48:13.018Z,98907.75
2022-12-19T23:51:01.693Z,98902.78
2022-12-19T23:53:44.993Z,98908.00
2022-12-19T23:56:36.997Z,98906.50
2022-12-19T23:59:25.032Z,98912.84
